createdAt,value
2019-01-05T07:06:49.687Z,8.00
2019-01-05T07:22:11.330Z,8.33
2019-01-05T07:37:37.727Z,7.67
2019-01-05T07:53:14.606Z,7.23
2019-01-05T08:09:03.611Z,8.23
2019-01-05T08:24:37.130Z,7.70
2019-01-05T08:40:29.278Z,10.10
2019-01-05T08:56:14.891Z,10.43
2019-01-05T09:12:02.171Z,15.27
2019-01-05T09:27:48.445Z,11.27
2019-01-05T09:43:32.638Z,15.07
2019-01-05T09:58:54.343Z,13.87
2019-01-05T10:14:51.138Z,14.83
2019-01-05T10:30:45.977Z,15.30
2019-01-05T10:46:22.891Z,13.20
2019-01-05T11:02:06.940Z,15.33
2019-01-05T11:17:48.187Z,14.03
2019-01-05T11:33:26.556Z,14.03
2019-01-05T11:48:44.921Z,15.17
2019-01-05T12:04:17.010Z,13.07
2019-01-05T12:19:35.373Z,16.47
2019-01-05T12:35:12.360Z,15.27
2019-01-05T13:06:27.130Z,16.70
2019-01-05T13:22:11.530Z,15.90
2019-01-05T13:38:11.251Z,16.47
2019-01-05T13:53:20.972Z,16.37
2019-01-05T14:08:30.840Z,17.47
2019-01-05T14:23:49.138Z,17.67
2019-01-05T14:39:12.250Z,15.57
2019-01-05T14:54:34.000Z,16.07
2019-01-05T15:09:40.662Z,16.07
2019-01-05T15:25:03.580Z,15.80
2019-01-05T15:40:27.611Z,16.27
2019-01-05T15:55:34.415Z,17.70
2019-01-05T16:10:41.338Z,16.43
2019-01-05T16:25:48.292Z,16.83
2019-01-05T16:40:55.201Z,17.07
2019-01-05T16:56:14.041Z,17.27
2019-01-05T17:11:20.858Z,17.23
2019-01-05T17:26:31.809Z,16.50
2019-01-05T17:41:55.219Z,16.93
2019-01-05T17:57:18.514Z,17.97
2019-01-05T18:12:31.412Z,19.07
2019-01-05T18:27:54.614Z,19.00
2019-01-05T18:43:01.514Z,19.53
2019-01-05T18:58:14.416Z,18.83
2019-01-05T19:13:37.814Z,19.57
2019-01-05T19:28:44.959Z,18.13
2019-01-05T19:44:03.971Z,19.57
2019-01-05T19:59:26.973Z,18.23
2019-01-05T20:14:36.693Z,21.57
2019-01-05T20:29:52.531Z,20.07
2019-01-05T20:44:59.413Z,19.50
2019-01-05T21:00:12.057Z,20.83
2019-01-05T21:15:20.227Z,19.40
2019-01-05T21:30:33.456Z,21.20
2019-01-05T21:45:49.397Z,19.30
2019-01-05T22:00:56.411Z,19.97
2019-01-05T22:16:03.271Z,20.23
2019-01-05T22:31:25.294Z,21.27
2019-01-05T22:46:37.971Z,19.37
2019-01-05T23:01:47.610Z,18.83
2019-01-05T23:16:54.410Z,19.63
2019-01-05T23:32:17.651Z,19.87
2019-01-05T23:47:40.449Z,17.43
